Time;durP1;ratioP1;P1;durP2;ratioP2;P2;SDS_P1;SDS_P2;PMS_P1;PMS_P2;Temp;Humidity;BMP_temperature;BMP_pressure;BME280_temperature;BME280_humidity;BME280_pressure;Samples;Min_cycle;Max_cycle;Signal;HPM_P1;HPM_P2
2024/01/15 00:01:36;0.00;0.00;0.62;0.00;0.00;0.62;2.60;2.07;;;18.30;21.70;;;;;;2251840;61;20367;-58
2024/01/15 00:04:21;0.00;0.00;0.62;0.00;0.00;0.62;2.70;2.00;;;18.30;21.70;;;;;;2252538;61;20388;-57
2024/01/15 00:07:06;0.00;0.00;0.62;0.00;0.00;0.62;2.57;1.90;;;18.20;21.60;;;;;;2252524;61;20394;-58
2024/01/15 00:09:50;0.00;0.00;0.62;0.00;0.00;0.62;2.47;1.63;;;18.30;22.20;;;;;;2252239;61;20410;-58
2024/01/15 00:12:36;0.00;0.00;0.62;0.00;0.00;0.62;2.60;2.03;;;18.30;21.70;;;;;;2252195;61;20362;-60
2024/01/15 00:15:22;0.00;0.00;0.62;0.00;0.00;0.62;2.30;1.70;;;18.30;21.70;;;;;;2252350;61;20375;-56
2024/01/15 00:18:06;0.00;0.00;0.62;0.00;0.00;0.62;2.83;2.03;;;18.30;21.70;;;;;;2252529;61;20768;-60
2024/01/15 00:20:51;0.00;0.00;0.62;0.00;0.00;0.62;2.53;1.73;;;18.30;21.70;;;;;;2252421;61;20369;-56
2024/01/15 00:23:36;0.00;0.00;0.62;0.00;0.00;0.62;2.23;1.70;;;18.30;21.70;;;;;;2251835;61;20483;-57
2024/01/15 00:26:20;0.00;0.00;0.62;0.00;0.00;0.62;2.70;1.60;;;18.20;21.60;;;;;;2252534;61;20958;-58
2024/01/15 00:29:06;0.00;0.00;0.62;0.00;0.00;0.62;2.87;2.23;;;18.20;21.60;;;;;;2252629;61;20367;-59
2024/01/15 00:31:51;0.00;0.00;0.62;0.00;0.00;0.62;2.30;1.80;;;18.30;21.70;;;;;;2251861;61;20543;-56
2024/01/15 00:34:36;0.00;0.00;0.62;0.00;0.00;0.62;2.97;2.10;;;18.30;21.70;;;;;;2252420;61;20390;-60
2024/01/15 00:37:20;0.00;0.00;0.62;0.00;0.00;0.62;3.03;1.77;;;18.30;21.70;;;;;;2252454;61;20367;-58
2024/01/15 00:40:07;0.00;0.00;0.62;0.00;0.00;0.62;2.90;1.70;;;18.30;21.70;;;;;;2252287;61;20409;-57
2024/01/15 00:42:52;0.00;0.00;0.62;0.00;0.00;0.62;2.17;1.50;;;18.30;21.70;;;;;;2252162;61;20438;-61
2024/01/15 00:45:38;0.00;0.00;0.62;0.00;0.00;0.62;2.10;1.70;;;18.30;21.70;;;;;;2252186;61;20374;-58
2024/01/15 00:48:23;0.00;0.00;0.62;0.00;0.00;0.62;3.10;1.57;;;18.30;21.70;;;;;;2252598;61;20370;-61
2024/01/15 00:51:07;0.00;0.00;0.62;0.00;0.00;0.62;2.17;1.60;;;18.20;21.70;;;;;;2252330;61;20362;-57
2024/01/15 00:53:52;0.00;0.00;0.62;0.00;0.00;0.62;2.80;1.77;;;18.30;21.70;;;;;;2251996;61;20394;-57
2024/01/15 00:56:37;0.00;0.00;0.62;0.00;0.00;0.62;1.90;1.37;;;18.20;21.60;;;;;;2252292;61;20371;-57
2024/01/15 00:59:22;0.00;0.00;0.62;0.00;0.00;0.62;1.90;1.40;;;18.30;21.70;;;;;;2252293;61;20911;-67
2024/01/15 01:02:08;0.00;0.00;0.62;0.00;0.00;0.62;2.43;1.67;;;18.20;21.70;;;;;;2251714;61;20902;-59
2024/01/15 01:04:52;0.00;0.00;0.62;0.00;0.00;0.62;2.40;1.63;;;18.30;21.70;;;;;;2252538;61;20391;-58
2024/01/15 01:07:37;0.00;0.00;0.62;0.00;0.00;0.62;2.30;1.40;;;18.30;21.70;;;;;;2252265;61;20425;-59
2024/01/15 01:10:22;0.00;0.00;0.62;0.00;0.00;0.62;3.03;2.27;;;18.20;21.70;;;;;;2252410;61;20386;-60
2024/01/15 01:13:06;0.00;0.00;0.62;0.00;0.00;0.62;2.00;1.20;;;18.20;21.70;;;;;;2252138;61;20415;-57
2024/01/15 01:15:51;0.00;0.00;0.62;0.00;0.00;0.62;3.20;2.00;;;18.30;21.70;;;;;;2252077;61;20459;-58
2024/01/15 01:18:37;0.00;0.00;0.62;0.00;0.00;0.62;1.90;1.50;;;18.20;21.70;;;;;;2252376;61;20366;-60
2024/01/15 01:21:22;0.00;0.00;0.62;0.00;0.00;0.62;2.50;1.60;;;18.20;21.60;;;;;;2252339;61;20375;-60
2024/01/15 01:24:06;0.00;0.00;0.62;0.00;0.00;0.62;2.93;1.73;;;18.20;22.20;;;;;;2251977;61;20445;-57
2024/01/15 01:26:51;0.00;0.00;0.62;0.00;0.00;0.62;3.03;1.67;;;18.20;21.70;;;;;;2252352;61;20433;-57
2024/01/15 01:29:35;0.00;0.00;0.62;0.00;0.00;0.62;2.70;1.70;;;18.20;21.70;;;;;;2252343;61;20573;-59
2024/01/15 01:32:20;0.00;0.00;0.62;0.00;0.00;0.62;2.30;1.60;;;18.20;21.70;;;;;;2251888;61;20386;-59
2024/01/15 01:35:06;0.00;0.00;0.62;0.00;0.00;0.62;2.57;1.57;;;18.20;21.70;;;;;;2252127;61;20421;-60
2024/01/15 01:37:51;0.00;0.00;0.62;0.00;0.00;0.62;2.80;2.10;;;18.20;21.60;;;;;;2251967;61;20370;-58
2024/01/15 01:40:35;0.00;0.00;0.62;0.00;0.00;0.62;1.90;1.20;;;18.20;21.60;;;;;;2251951;61;20942;-58
2024/01/15 01:43:20;0.00;0.00;0.62;0.00;0.00;0.62;2.53;1.50;;;18.20;21.60;;;;;;2251791;61;20395;-59
2024/01/15 01:46:05;0.00;0.00;0.62;0.00;0.00;0.62;2.53;1.40;;;18.20;22.10;;;;;;2252035;61;20785;-56
2024/01/15 01:48:50;0.00;0.00;0.62;0.00;0.00;0.62;3.30;1.67;;;18.20;21.60;;;;;;2251968;61;20366;-61
2024/01/15 01:51:39;0.00;0.00;0.62;0.00;0.00;0.62;2.17;1.63;;;18.20;21.60;;;;;;2252090;61;20366;-62
2024/01/15 01:54:25;0.00;0.00;0.62;0.00;0.00;0.62;2.00;1.40;;;18.20;21.60;;;;;;2252167;61;20953;-59
2024/01/15 01:57:12;0.00;0.00;0.62;0.00;0.00;0.62;2.53;1.57;;;18.20;21.60;;;;;;2252134;61;20878;-57
2024/01/15 01:59:57;0.00;0.00;0.62;0.00;0.00;0.62;2.07;1.57;;;18.20;21.60;;;;;;2252025;61;20887;-56
2024/01/15 02:02:42;0.00;0.00;0.62;0.00;0.00;0.62;2.60;1.43;;;18.20;22.10;;;;;;2251192;61;20934;-60
2024/01/15 02:05:27;0.00;0.00;0.62;0.00;0.00;0.62;2.60;1.70;;;18.20;21.60;;;;;;2252023;61;20374;-58
2024/01/15 02:08:14;0.00;0.00;0.62;0.00;0.00;0.62;2.73;1.77;;;18.20;21.60;;;;;;2252046;61;20374;-58
2024/01/15 02:10:59;0.00;0.00;0.62;0.00;0.00;0.62;2.57;1.43;;;18.20;21.60;;;;;;2251776;61;20414;-58
2024/01/15 02:13:43;0.00;0.00;0.62;0.00;0.00;0.62;2.20;1.90;;;18.20;21.60;;;;;;2252001;61;20784;-60
2024/01/15 02:16:28;0.00;0.00;0.62;0.00;0.00;0.62;2.43;1.70;;;18.20;21.60;;;;;;2251418;61;20367;-61
2024/01/15 02:19:16;0.00;0.00;0.62;0.00;0.00;0.62;3.83;1.73;;;18.20;21.60;;;;;;2247315;61;20421;-61
2024/01/15 02:22:01;0.00;0.00;0.62;0.00;0.00;0.62;2.63;1.50;;;18.20;21.60;;;;;;2251482;61;20553;-55
2024/01/15 02:24:47;0.00;0.00;0.62;0.00;0.00;0.62;2.60;1.50;;;18.20;21.60;;;;;;2252189;61;20382;-57
2024/01/15 02:27:31;0.00;0.00;0.62;0.00;0.00;0.62;2.10;1.47;;;18.20;21.50;;;;;;2251722;61;20575;-63
2024/01/15 02:30:17;0.00;0.00;0.62;0.00;0.00;0.62;2.30;1.57;;;18.20;21.60;;;;;;2251594;61;20471;-59
2024/01/15 02:33:02;0.00;0.00;0.62;0.00;0.00;0.62;2.57;1.30;;;18.20;21.60;;;;;;2251735;61;20429;-58
2024/01/15 02:35:49;0.00;0.00;0.62;0.00;0.00;0.62;2.80;1.63;;;18.20;21.60;;;;;;2252128;61;20915;-55
2024/01/15 02:38:34;0.00;0.00;0.62;0.00;0.00;0.62;2.00;1.30;;;18.20;21.60;;;;;;2251972;61;20447;-58
2024/01/15 02:41:20;0.00;0.00;0.62;0.00;0.00;0.62;2.97;1.90;;;18.20;21.50;;;;;;2252242;61;20371;-60
2024/01/15 02:44:05;0.00;0.00;0.62;0.00;0.00;0.62;2.43;1.63;;;18.20;21.60;;;;;;2251598;61;20398;-60
2024/01/15 02:46:49;0.00;0.00;0.62;0.00;0.00;0.62;2.23;1.20;;;18.20;21.60;;;;;;2252228;61;20910;-58
2024/01/15 02:49:34;0.00;0.00;0.62;0.00;0.00;0.62;2.10;1.10;;;18.20;21.60;;;;;;2252014;61;20992;-59
2024/01/15 02:52:18;0.00;0.00;0.62;0.00;0.00;0.62;2.10;1.33;;;18.20;21.60;;;;;;2252023;61;20907;-59
2024/01/15 02:55:03;0.00;0.00;0.62;0.00;0.00;0.62;2.50;1.60;;;18.20;21.50;;;;;;2252586;61;20518;-57
2024/01/15 02:57:49;0.00;0.00;0.62;0.00;0.00;0.62;3.40;1.87;;;18.20;21.50;;;;;;2252758;61;20367;-59
2024/01/15 03:00:34;0.00;0.00;0.62;0.00;0.00;0.62;2.87;1.40;;;18.20;21.50;;;;;;2252811;61;20374;-57
2024/01/15 03:03:18;0.00;0.00;0.62;0.00;0.00;0.62;1.93;1.13;;;18.20;21.50;;;;;;2252136;61;20394;-58
2024/01/15 03:06:04;0.00;0.00;0.62;0.00;0.00;0.62;2.13;1.47;;;18.20;21.50;;;;;;2252876;61;20367;-58
2024/01/15 03:08:48;0.00;0.00;0.62;0.00;0.00;0.62;2.33;1.20;;;18.20;21.50;;;;;;2252826;61;20362;-56
2024/01/15 03:11:38;0.00;0.00;0.62;0.00;0.00;0.62;2.60;1.43;;;18.20;21.50;;;;;;2252614;61;20530;-58
2024/01/15 03:14:26;0.00;0.00;0.62;0.00;0.00;0.62;1.73;1.43;;;18.20;21.50;;;;;;2252511;61;20375;-59
2024/01/15 03:17:12;0.00;0.00;0.62;0.00;0.00;0.62;2.17;1.43;;;18.20;21.50;;;;;;2252712;61;20374;-56
2024/01/15 03:19:56;0.00;0.00;0.62;0.00;0.00;0.62;2.50;1.50;;;18.20;21.50;;;;;;2252711;61;20362;-57
2024/01/15 03:22:41;0.00;0.00;0.62;0.00;0.00;0.62;2.50;1.40;;;18.20;21.50;;;;;;2252110;61;20494;-57
2024/01/15 03:25:25;0.00;0.00;0.62;0.00;0.00;0.62;4.03;1.60;;;18.20;21.50;;;;;;2252833;61;20951;-58
2024/01/15 03:28:10;0.00;0.00;0.62;0.00;0.00;0.62;2.00;1.20;;;18.20;21.50;;;;;;2252069;61;20362;-61
2024/01/15 03:30:56;0.00;0.00;0.62;0.00;0.00;0.62;2.17;1.40;;;18.20;21.50;;;;;;2252580;61;20418;-59
2024/01/15 03:33:41;0.00;0.00;0.62;0.00;0.00;0.62;3.57;1.50;;;18.20;21.50;;;;;;2252251;61;20383;-56
2024/01/15 03:36:25;0.00;0.00;0.62;0.00;0.00;0.62;3.00;1.10;;;18.20;21.50;;;;;;2252384;61;20779;-61
2024/01/15 03:39:10;0.00;0.00;0.62;0.00;0.00;0.62;3.00;1.20;;;18.20;21.50;;;;;;2252224;61;20481;-60
2024/01/15 03:41:55;0.00;0.00;0.62;0.00;0.00;0.62;4.13;1.30;;;18.20;21.50;;;;;;2252438;61;20362;-59
2024/01/15 03:44:40;0.00;0.00;0.62;0.00;0.00;0.62;2.47;1.33;;;18.20;21.50;;;;;;2252295;61;20394;-59
2024/01/15 03:47:26;0.00;0.00;0.62;0.00;0.00;0.62;2.10;1.20;;;18.20;21.50;;;;;;2252629;61;20647;-59
2024/01/15 03:50:11;0.00;0.00;0.62;0.00;0.00;0.62;2.10;1.43;;;18.20;22.00;;;;;;2252753;61;20378;-58
2024/01/15 03:52:55;0.00;0.00;0.62;0.00;0.00;0.62;1.80;1.00;;;18.20;21.50;;;;;;2252178;61;20414;-58
2024/01/15 03:55:40;0.00;0.00;0.62;0.00;0.00;0.62;1.90;1.20;;;18.20;21.50;;;;;;2252823;61;20375;-59
2024/01/15 03:58:25;0.00;0.00;0.62;0.00;0.00;0.62;1.67;1.10;;;18.20;21.50;;;;;;2252187;61;20370;-60
2024/01/15 04:01:10;0.00;0.00;0.62;0.00;0.00;0.62;2.40;1.00;;;18.10;21.50;;;;;;2252599;61;20414;-58
2024/01/15 04:03:56;0.00;0.00;0.62;0.00;0.00;0.62;2.80;1.23;;;18.10;21.40;;;;;;2251084;61;20939;-58
2024/01/15 04:06:41;0.00;0.00;0.62;0.00;0.00;0.62;2.10;1.00;;;18.10;21.40;;;;;;2252256;61;20513;-60
2024/01/15 04:09:25;0.00;0.00;0.62;0.00;0.00;0.62;3.17;1.03;;;18.10;21.50;;;;;;2252502;61;20370;-59
2024/01/15 04:12:10;0.00;0.00;0.62;0.00;0.00;0.62;1.93;1.00;;;18.10;21.50;;;;;;2251752;61;20425;-57
2024/01/15 04:14:54;0.00;0.00;0.62;0.00;0.00;0.62;1.97;1.10;;;18.10;21.40;;;;;;2252463;61;20382;-56
2024/01/15 04:17:39;0.00;0.00;0.62;0.00;0.00;0.62;2.97;1.20;;;18.10;21.50;;;;;;2252493;61;20383;-59
2024/01/15 04:20:25;0.00;0.00;0.62;0.00;0.00;0.62;1.60;0.90;;;18.10;21.40;;;;;;2252338;61;20362;-57
2024/01/15 04:23:10;0.00;0.00;0.62;0.00;0.00;0.62;2.40;1.27;;;18.10;21.40;;;;;;2251712;61;20526;-57
2024/01/15 04:25:55;0.00;0.00;0.62;0.00;0.00;0.62;3.10;1.20;;;18.10;21.40;;;;;;2252382;61;20422;-58
2024/01/15 04:28:40;0.00;0.00;0.62;0.00;0.00;0.62;2.00;1.10;;;18.10;21.50;;;;;;2252299;61;20996;-55
2024/01/15 04:31:26;0.00;0.00;0.62;0.00;0.00;0.62;2.53;1.57;;;18.10;21.50;;;;;;2252333;61;20363;-57
2024/01/15 04:34:11;0.00;0.00;0.62;0.00;0.00;0.62;1.97;1.03;;;18.10;21.50;;;;;;2252429;61;20381;-59
2024/01/15 04:36:57;0.00;0.00;0.62;0.00;0.00;0.62;1.80;0.80;;;18.10;21.50;;;;;;2252053;61;20366;-57
2024/01/15 04:39:42;0.00;0.00;0.62;0.00;0.00;0.62;2.57;1.03;;;18.10;21.50;;;;;;2252393;61;20379;-59
2024/01/15 04:42:26;0.00;0.00;0.62;0.00;0.00;0.62;2.60;1.10;;;18.10;21.50;;;;;;2251880;61;20759;-59
2024/01/15 04:45:11;0.00;0.00;0.62;0.00;0.00;0.62;3.97;1.20;;;18.10;21.50;;;;;;2252610;61;20409;-58
2024/01/15 04:47:57;0.00;0.00;0.62;0.00;0.00;0.62;1.67;0.90;;;18.10;21.50;;;;;;2252435;61;20454;-58
2024/01/15 04:50:42;0.00;0.00;0.62;0.00;0.00;0.62;2.03;1.10;;;18.10;21.50;;;;;;2251907;61;20443;-61
2024/01/15 04:53:28;0.00;0.00;0.62;0.00;0.00;0.62;1.80;0.97;;;18.10;21.50;;;;;;2251681;61;20459;-55
2024/01/15 04:56:12;0.00;0.00;0.62;0.00;0.00;0.62;2.60;1.13;;;18.10;21.50;;;;;;2252244;61;20915;-54
2024/01/15 04:58:57;0.00;0.00;0.62;0.00;0.00;0.62;1.50;0.80;;;18.10;21.50;;;;;;2252053;61;20364;-59
2024/01/15 05:01:42;0.00;0.00;0.62;0.00;0.00;0.62;1.60;1.10;;;18.10;21.50;;;;;;2252047;61;20662;-59
2024/01/15 05:04:27;0.00;0.00;0.62;0.00;0.00;0.62;1.80;1.10;;;18.10;21.50;;;;;;2252015;61;20516;-59
2024/01/15 05:07:11;0.00;0.00;0.62;0.00;0.00;0.62;2.07;0.83;;;18.10;21.50;;;;;;2252455;61;20443;-58
2024/01/15 05:09:57;0.00;0.00;0.62;0.00;0.00;0.62;1.93;0.80;;;18.10;21.50;;;;;;2252310;61;20382;-55
2024/01/15 05:12:41;0.00;0.00;0.62;0.00;0.00;0.62;2.53;1.10;;;18.10;21.50;;;;;;2251764;61;20374;-59
2024/01/15 05:15:26;0.00;0.00;0.62;0.00;0.00;0.62;2.43;1.17;;;18.10;21.50;;;;;;2252223;61;20402;-56
2024/01/15 05:18:10;0.00;0.00;0.62;0.00;0.00;0.62;1.53;0.90;;;18.10;21.50;;;;;;2252396;61;20860;-57
2024/01/15 05:20:55;0.00;0.00;0.62;0.00;0.00;0.62;1.70;0.80;;;18.10;21.50;;;;;;2252187;61;20359;-58
2024/01/15 05:23:40;0.00;0.00;0.62;0.00;0.00;0.62;3.63;1.20;;;18.10;21.50;;;;;;2251980;61;20403;-55
2024/01/15 05:26:25;0.00;0.00;0.62;0.00;0.00;0.62;2.80;1.20;;;18.10;21.50;;;;;;2252288;61;20367;-60
2024/01/15 05:29:10;0.00;0.00;0.62;0.00;0.00;0.62;2.30;0.90;;;18.10;21.50;;;;;;2252286;61;20898;-59
2024/01/15 05:31:55;0.00;0.00;0.62;0.00;0.00;0.62;1.50;0.80;;;18.10;21.60;;;;;;2252188;61;20366;-59
2024/01/15 05:34:39;0.00;0.00;0.62;0.00;0.00;0.62;1.67;0.80;;;18.10;21.50;;;;;;2252039;61;21012;-57
2024/01/15 05:37:24;0.00;0.00;0.62;0.00;0.00;0.62;1.43;0.80;;;18.10;21.60;;;;;;2252415;61;20379;-58
2024/01/15 05:40:10;0.00;0.00;0.62;0.00;0.00;0.62;1.43;0.80;;;18.10;21.50;;;;;;2252216;61;20366;-52
2024/01/15 05:42:56;0.00;0.00;0.62;0.00;0.00;0.62;2.63;0.90;;;18.10;21.50;;;;;;2251681;61;20682;-57
2024/01/15 05:45:44;0.00;0.00;0.62;0.00;0.00;0.62;1.57;0.80;;;18.10;21.60;;;;;;2252399;61;20371;-60
2024/01/15 05:48:29;0.00;0.00;0.62;0.00;0.00;0.62;1.70;1.00;;;18.10;21.60;;;;;;2252443;61;20930;-58
2024/01/15 05:51:13;0.00;0.00;0.62;0.00;0.00;0.62;1.80;0.93;;;18.10;21.50;;;;;;2252389;61;20779;-59
2024/01/15 05:53:58;0.00;0.00;0.62;0.00;0.00;0.62;1.70;1.10;;;18.10;21.50;;;;;;2251970;61;20386;-56
2024/01/15 05:56:43;0.00;0.00;0.62;0.00;0.00;0.62;1.93;1.03;;;18.10;21.50;;;;;;2251958;61;20828;-56
2024/01/15 05:59:32;0.00;0.00;0.62;0.00;0.00;0.62;1.63;0.80;;;18.10;21.60;;;;;;2252146;61;20375;-63
2024/01/15 06:02:16;0.00;0.00;0.62;0.00;0.00;0.62;2.23;1.00;;;18.10;21.50;;;;;;2251772;61;20394;-57
2024/01/15 06:05:02;0.00;0.00;0.62;0.00;0.00;0.62;2.23;1.10;;;18.10;21.50;;;;;;2251911;61;20438;-60
2024/01/15 06:07:47;0.00;0.00;0.62;0.00;0.00;0.62;1.93;0.80;;;18.10;21.50;;;;;;2252204;61;20354;-59
2024/01/15 06:10:31;0.00;0.00;0.62;0.00;0.00;0.62;1.90;1.00;;;18.10;21.50;;;;;;2252133;61;20545;-60
2024/01/15 06:13:16;0.00;0.00;0.62;0.00;0.00;0.62;2.27;0.70;;;18.10;21.50;;;;;;2251726;61;20502;-56
2024/01/15 06:16:11;0.00;0.00;0.62;0.00;0.00;0.62;1.50;0.80;;;18.10;21.50;;;;;;2251950;61;20501;-59
2024/01/15 06:18:56;0.00;0.00;0.62;0.00;0.00;0.62;1.70;1.00;;;18.10;21.60;;;;;;2251966;61;20392;-61
2024/01/15 06:21:40;0.00;0.00;0.62;0.00;0.00;0.62;1.60;0.80;;;18.10;21.50;;;;;;2251652;61;20462;-57
2024/01/15 06:24:25;0.00;0.00;0.62;0.00;0.00;0.62;1.77;0.90;;;18.10;21.50;;;;;;2252030;61;20445;-60
2024/01/15 06:27:09;0.00;0.00;0.62;0.00;0.00;0.62;1.70;0.90;;;18.10;21.50;;;;;;2252747;61;20362;-59
2024/01/15 06:29:55;0.00;0.00;0.62;0.00;0.00;0.62;1.70;0.90;;;18.10;21.60;;;;;;2252894;61;20370;-56
2024/01/15 06:32:42;0.00;0.00;0.62;0.00;0.00;0.62;2.97;1.10;;;18.10;21.60;;;;;;2251870;61;20421;-58
2024/01/15 06:35:26;0.00;0.00;0.62;0.00;0.00;0.62;1.80;0.93;;;18.10;21.50;;;;;;2252649;61;20919;-57
2024/01/15 06:38:11;0.00;0.00;0.62;0.00;0.00;0.62;1.70;0.87;;;18.10;21.60;;;;;;2252829;61;20414;-56
2024/01/15 06:40:55;0.00;0.00;0.62;0.00;0.00;0.62;1.60;0.70;;;18.10;21.60;;;;;;2252669;61;20930;-62
2024/01/15 06:43:40;0.00;0.00;0.62;0.00;0.00;0.62;2.33;1.10;;;18.10;21.50;;;;;;2252209;61;20449;-59
2024/01/15 06:46:24;0.00;0.00;0.62;0.00;0.00;0.62;1.50;0.80;;;18.10;21.50;;;;;;2252781;61;20358;-58
2024/01/15 06:49:11;0.00;0.00;0.62;0.00;0.00;0.62;1.90;0.90;;;18.10;21.50;;;;;;2252770;61;20985;-55
2024/01/15 06:51:56;0.00;0.00;0.62;0.00;0.00;0.62;2.23;0.90;;;18.10;21.50;;;;;;2252393;61;20895;-59
2024/01/15 06:54:40;0.00;0.00;0.62;0.00;0.00;0.62;1.40;0.70;;;18.10;21.60;;;;;;2252609;61;20950;-60
2024/01/15 06:57:25;0.00;0.00;0.62;0.00;0.00;0.62;1.63;0.93;;;18.10;21.60;;;;;;2252560;61;20370;-59
2024/01/15 07:00:11;0.00;0.00;0.62;0.00;0.00;0.62;2.57;0.90;;;18.10;21.60;;;;;;2252860;61;20410;-58
2024/01/15 07:02:55;0.00;0.00;0.62;0.00;0.00;0.62;1.83;0.70;;;18.00;21.50;;;;;;2251843;61;20379;-58
2024/01/15 07:05:42;0.00;0.00;0.62;0.00;0.00;0.62;1.97;0.70;;;18.10;21.50;;;;;;2252202;61;20930;-56
2024/01/15 07:08:26;0.00;0.00;0.62;0.00;0.00;0.62;1.77;0.97;;;18.10;21.50;;;;;;2252751;61;20374;-60
2024/01/15 07:11:11;0.00;0.00;0.62;0.00;0.00;0.62;1.63;0.90;;;18.00;21.50;;;;;;2252642;61;20366;-58
2024/01/15 07:13:56;0.00;0.00;0.62;0.00;0.00;0.62;1.57;0.80;;;18.10;21.50;;;;;;2252389;61;20466;-59
2024/01/15 07:16:41;0.00;0.00;0.62;0.00;0.00;0.62;3.00;1.00;;;18.10;21.50;;;;;;2252547;61;20363;-56
2024/01/15 07:19:25;0.00;0.00;0.62;0.00;0.00;0.62;2.40;1.10;;;18.10;21.50;;;;;;2252412;61;20369;-58
2024/01/15 07:22:11;0.00;0.00;0.62;0.00;0.00;0.62;2.03;0.90;;;18.10;21.50;;;;;;2252261;61;20370;-58
2024/01/15 07:24:56;0.00;0.00;0.62;0.00;0.00;0.62;2.50;1.17;;;18.10;21.50;;;;;;2252378;61;20824;-61
2024/01/15 07:27:44;0.00;0.00;0.62;0.00;0.00;0.62;1.60;0.90;;;18.10;21.50;;;;;;2252678;61;20370;-60
2024/01/15 07:30:28;0.00;0.00;0.62;0.00;0.00;0.62;1.50;0.90;;;18.10;21.50;;;;;;2252620;61;20470;-54
2024/01/15 07:33:13;0.00;0.00;0.62;0.00;0.00;0.62;1.90;1.10;;;18.10;21.50;;;;;;2251978;61;20378;-58
2024/01/15 07:35:58;0.00;0.00;0.62;0.00;0.00;0.62;2.13;0.97;;;18.10;21.60;;;;;;2252158;61;20899;-59
2024/01/15 07:38:43;0.00;0.00;0.62;0.00;0.00;0.62;2.80;1.00;;;18.10;21.60;;;;;;2252622;61;20371;-54
2024/01/15 07:41:28;0.00;0.00;0.62;0.00;0.00;0.62;2.27;1.30;;;18.10;21.50;;;;;;2251995;61;20455;-57
2024/01/15 07:44:12;0.00;0.00;0.62;0.00;0.00;0.62;1.53;0.90;;;18.10;21.50;;;;;;2252697;61;20991;-58
2024/01/15 07:46:57;0.00;0.00;0.62;0.00;0.00;0.62;1.63;1.00;;;18.10;21.60;;;;;;2252804;61;20371;-59
2024/01/15 07:49:41;0.00;0.00;0.62;0.00;0.00;0.62;2.20;1.10;;;18.10;21.60;;;;;;2252559;61;20367;-56
2024/01/15 07:52:26;0.00;0.00;0.62;0.00;0.00;0.62;2.17;1.10;;;18.10;21.50;;;;;;2252356;61;20886;-59
2024/01/15 07:55:13;0.00;0.00;0.62;0.00;0.00;0.62;2.03;1.33;;;18.10;21.60;;;;;;2252212;61;20482;-55
2024/01/15 07:57:59;0.00;0.00;0.62;0.00;0.00;0.62;1.83;1.00;;;18.10;21.60;;;;;;2252663;61;20425;-57
2024/01/15 08:00:44;0.00;0.00;0.62;0.00;0.00;0.62;2.30;1.40;;;18.10;21.60;;;;;;2252704;61;20367;-56
2024/01/15 08:03:28;0.00;0.00;0.62;0.00;0.00;0.62;2.80;1.30;;;18.10;21.60;;;;;;2251727;61;20986;-59
2024/01/15 08:06:13;0.00;0.00;0.62;0.00;0.00;0.62;2.30;1.37;;;18.10;21.60;;;;;;2252774;61;20370;-60
2024/01/15 08:08:59;0.00;0.00;0.62;0.00;0.00;0.62;1.70;1.30;;;18.10;21.60;;;;;;2252576;61;20422;-56
2024/01/15 08:11:45;0.00;0.00;0.62;0.00;0.00;0.62;2.50;1.40;;;18.10;21.60;;;;;;2252026;61;20401;-58
2024/01/15 08:14:29;0.00;0.00;0.62;0.00;0.00;0.62;4.20;1.53;;;18.10;21.70;;;;;;2252580;61;20386;-54
2024/01/15 08:17:14;0.00;0.00;0.62;0.00;0.00;0.62;2.97;1.43;;;18.10;21.60;;;;;;2252167;61;20421;-59
2024/01/15 08:20:01;0.00;0.00;0.62;0.00;0.00;0.62;3.47;1.63;;;18.10;21.60;;;;;;2252578;61;20447;-54
2024/01/15 08:22:46;0.00;0.00;0.62;0.00;0.00;0.62;2.07;1.37;;;18.10;21.60;;;;;;2251848;61;20490;-57
2024/01/15 08:25:31;0.00;0.00;0.62;0.00;0.00;0.62;2.80;1.30;;;18.10;21.60;;;;;;2251801;61;20366;-56
2024/01/15 08:28:17;0.00;0.00;0.62;0.00;0.00;0.62;2.90;1.63;;;18.10;21.60;;;;;;2252518;61;20486;-58
2024/01/15 08:31:02;0.00;0.00;0.62;0.00;0.00;0.62;2.40;1.47;;;18.10;21.60;;;;;;2252048;61;20379;-57
2024/01/15 08:33:47;0.00;0.00;0.62;0.00;0.00;0.62;3.37;1.50;;;18.10;21.60;;;;;;2251842;61;20788;-56
2024/01/15 08:36:32;0.00;0.00;0.62;0.00;0.00;0.62;2.07;1.70;;;18.10;21.60;;;;;;2252315;61;20779;-58
2024/01/15 08:39:19;0.00;0.00;0.62;0.00;0.00;0.62;2.47;1.50;;;18.10;21.60;;;;;;2252294;61;20418;-58
2024/01/15 08:42:04;0.00;0.00;0.62;0.00;0.00;0.62;2.00;1.40;;;18.10;21.60;;;;;;2252065;61;20427;-56
2024/01/15 08:44:50;0.00;0.00;0.62;0.00;0.00;0.62;2.70;1.80;;;18.10;21.60;;;;;;2252135;61;20399;-56
2024/01/15 08:47:35;0.00;0.00;0.62;0.00;0.00;0.62;3.13;2.27;;;18.10;21.70;;;;;;2252367;61;20790;-59
2024/01/15 08:50:20;0.00;0.00;0.62;0.00;0.00;0.62;2.70;1.80;;;18.10;21.60;;;;;;2252572;61;20414;-55
2024/01/15 08:53:05;0.00;0.00;0.62;0.00;0.00;0.62;3.53;2.30;;;18.10;21.60;;;;;;2252171;61;20985;-58
2024/01/15 08:55:50;0.00;0.00;0.62;0.00;0.00;0.62;2.37;1.33;;;18.10;21.60;;;;;;2252161;61;20370;-58
2024/01/15 08:58:35;0.00;0.00;0.62;0.00;0.00;0.62;2.50;1.63;;;18.10;21.60;;;;;;2252448;61;20473;-58
2024/01/15 09:01:23;0.00;0.00;0.62;0.00;0.00;0.62;2.63;1.70;;;18.10;21.60;;;;;;2252215;61;20406;-58
2024/01/15 09:04:07;0.00;0.00;0.62;0.00;0.00;0.62;3.60;1.80;;;18.10;21.60;;;;;;2252212;61;20824;-54
2024/01/15 09:06:52;0.00;0.00;0.62;0.00;0.00;0.62;2.87;1.80;;;18.10;21.60;;;;;;2252266;61;20685;-60
2024/01/15 09:09:36;0.00;0.00;0.62;0.00;0.00;0.62;3.00;1.80;;;18.10;21.60;;;;;;2252179;61;20367;-57
2024/01/15 09:12:22;0.00;0.00;0.62;0.00;0.00;0.62;2.67;1.80;;;18.10;21.60;;;;;;2251950;61;20426;-59
2024/01/15 09:15:08;0.00;0.00;0.62;0.00;0.00;0.62;2.77;1.57;;;18.10;21.60;;;;;;2252343;61;21048;-56
2024/01/15 09:17:54;0.00;0.00;0.62;0.00;0.00;0.62;3.30;2.17;;;18.10;21.60;;;;;;2251955;61;20395;-60
2024/01/15 09:20:39;0.00;0.00;0.62;0.00;0.00;0.62;3.60;2.07;;;18.10;21.60;;;;;;2252439;61;20403;-58
2024/01/15 09:23:23;0.00;0.00;0.62;0.00;0.00;0.62;2.50;1.60;;;18.10;21.70;;;;;;2251656;61;20441;-59
2024/01/15 09:26:09;0.00;0.00;0.62;0.00;0.00;0.62;3.20;2.10;;;18.10;21.60;;;;;;2252272;61;20915;-56
2024/01/15 09:28:53;0.00;0.00;0.62;0.00;0.00;0.62;2.43;1.50;;;18.10;21.70;;;;;;2252244;61;20450;-59
2024/01/15 09:31:38;0.00;0.00;0.62;0.00;0.00;0.62;3.00;1.40;;;18.10;21.70;;;;;;2251716;61;20371;-60
2024/01/15 09:34:24;0.00;0.00;0.62;0.00;0.00;0.62;3.17;1.63;;;18.10;22.20;;;;;;2252272;61;20789;-60
2024/01/15 09:37:09;0.00;0.00;0.62;0.00;0.00;0.62;2.83;1.47;;;18.10;21.70;;;;;;2252279;61;20914;-57
2024/01/15 09:39:55;0.00;0.00;0.62;0.00;0.00;0.62;2.00;1.37;;;18.10;21.70;;;;;;2252172;61;20402;-58
2024/01/15 09:42:41;0.00;0.00;0.62;0.00;0.00;0.62;2.57;1.70;;;18.10;21.70;;;;;;2251921;61;20465;-58
2024/01/15 09:45:26;0.00;0.00;0.62;0.00;0.00;0.62;2.47;1.60;;;18.10;21.70;;;;;;2251761;61;20362;-62
2024/01/15 09:48:10;0.00;0.00;0.62;0.00;0.00;0.62;2.57;1.40;;;18.10;21.70;;;;;;2252559;61;20482;-60
2024/01/15 09:50:58;0.00;0.00;0.62;0.00;0.00;0.62;2.67;1.77;;;18.10;21.70;;;;;;2252302;61;20421;-57
2024/01/15 09:53:44;0.00;0.00;0.62;0.00;0.00;0.62;3.40;1.97;;;18.10;21.70;;;;;;2251765;61;20382;-58
2024/01/15 09:56:28;0.00;0.00;0.62;0.00;0.00;0.62;2.23;1.70;;;18.10;21.70;;;;;;2252051;61;20420;-53
2024/01/15 09:59:15;0.00;0.00;0.62;0.00;0.00;0.62;2.50;1.63;;;18.10;21.70;;;;;;2252184;61;20413;-58
2024/01/15 10:02:00;0.00;0.00;0.62;0.00;0.00;0.62;2.50;1.80;;;18.10;21.70;;;;;;2252295;61;20366;-61
2024/01/15 10:04:45;0.00;0.00;0.62;0.00;0.00;0.62;3.27;2.00;;;18.10;21.70;;;;;;2252627;61;20810;-62
2024/01/15 10:07:35;0.00;0.00;0.62;0.00;0.00;0.62;3.20;1.70;;;18.10;21.70;;;;;;2252539;61;20424;-59
2024/01/15 10:10:21;0.00;0.00;0.62;0.00;0.00;0.62;3.13;1.77;;;18.10;21.70;;;;;;2253064;61;20435;-60
2024/01/15 10:13:07;0.00;0.00;0.62;0.00;0.00;0.62;2.43;1.90;;;18.10;21.70;;;;;;2252530;61;20390;-56
2024/01/15 10:15:52;0.00;0.00;0.62;0.00;0.00;0.62;3.83;2.50;;;18.10;21.70;;;;;;2252718;61;20363;-55
2024/01/15 10:18:39;0.00;0.00;0.62;0.00;0.00;0.62;2.97;2.13;;;18.10;21.60;;;;;;2252841;61;20374;-57
2024/01/15 10:21:26;0.00;0.00;0.62;0.00;0.00;0.62;3.40;2.17;;;18.10;21.70;;;;;;2251620;61;20457;-58
2024/01/15 10:24:12;0.00;0.00;0.62;0.00;0.00;0.62;3.20;2.20;;;18.10;21.70;;;;;;2252501;61;20445;-59
2024/01/15 10:27:06;0.00;0.00;0.62;0.00;0.00;0.62;3.23;1.73;;;18.10;21.60;;;;;;2252981;61;20378;-60
2024/01/15 10:29:51;0.00;0.00;0.62;0.00;0.00;0.62;2.13;1.50;;;18.10;21.70;;;;;;2252930;61;20442;-58
2024/01/15 10:32:36;0.00;0.00;0.62;0.00;0.00;0.62;3.30;2.10;;;18.10;21.60;;;;;;2252472;61;20363;-57
2024/01/15 10:35:22;0.00;0.00;0.62;0.00;0.00;0.62;2.73;1.60;;;18.10;21.70;;;;;;2252640;61;20410;-54
2024/01/15 10:38:07;0.00;0.00;0.62;0.00;0.00;0.62;4.00;2.00;;;18.10;21.70;;;;;;2252662;61;20370;-59
2024/01/15 10:40:53;0.00;0.00;0.62;0.00;0.00;0.62;2.83;1.70;;;18.10;21.70;;;;;;2252773;61;20398;-60
2024/01/15 10:43:40;0.00;0.00;0.62;0.00;0.00;0.62;3.00;2.07;;;18.10;21.70;;;;;;2252343;61;20426;-60
2024/01/15 10:46:26;0.00;0.00;0.62;0.00;0.00;0.62;3.10;2.10;;;18.20;21.70;;;;;;2252495;61;21070;-57
2024/01/15 10:49:11;0.00;0.00;0.62;0.00;0.00;0.62;3.20;1.97;;;18.10;21.70;;;;;;2252773;61;20895;-56
2024/01/15 10:51:56;0.00;0.00;0.62;0.00;0.00;0.62;2.00;1.30;;;18.10;21.70;;;;;;2252369;61;20808;-62